createdAt,value
2017-07-21T12:52:19.102Z,50.10
2017-07-21T12:54:46.171Z,50.00
2017-07-21T12:57:13.245Z,47.10
2017-07-21T12:59:40.677Z,45.80
2017-07-21T13:03:19.455Z,45.10
2017-07-21T13:05:47.338Z,52.00
2017-07-21T13:21:26.301Z,47.70
2017-07-21T13:23:53.825Z,46.00
2017-07-21T15:42:56.234Z,46.40
2017-07-21T15:49:02.393Z,47.40
2017-07-21T15:51:29.952Z,47.30
2017-07-21T15:53:57.454Z,46.60
2017-07-21T15:56:24.971Z,45.80
2017-07-21T15:58:52.523Z,45.60
2017-07-21T16:01:20.037Z,44.60
2017-07-21T16:03:47.550Z,44.10
2017-07-21T16:06:15.094Z,43.70
2017-07-21T16:08:42.600Z,43.30
2017-07-21T16:11:10.122Z,43.30
2017-07-21T16:13:38.408Z,43.20
2017-07-21T16:16:05.930Z,43.10
2017-07-21T16:18:33.445Z,42.90
2017-07-21T16:21:00.971Z,42.90
2017-07-21T16:23:28.483Z,43.00
2017-07-21T16:25:56.017Z,43.10
2017-07-21T16:28:23.538Z,43.10
2017-07-21T16:30:51.818Z,43.30
2017-07-21T16:33:19.329Z,43.20
2017-07-21T16:35:46.833Z,43.40
2017-07-21T16:38:14.345Z,43.60
2017-07-21T16:40:41.874Z,43.70
2017-07-21T16:43:09.376Z,44.00
2017-07-21T16:45:36.953Z,44.20
2017-07-21T16:48:04.485Z,44.40
2017-07-21T16:50:31.992Z,44.60
2017-07-21T16:52:59.529Z,44.80
2017-07-21T16:55:27.049Z,45.20
2017-07-21T16:57:54.549Z,45.40
2017-07-21T17:00:22.072Z,45.70
2017-07-21T17:02:49.610Z,46.00
2017-07-21T17:05:17.124Z,46.30
2017-07-21T17:07:44.633Z,46.60
2017-07-21T17:10:12.155Z,47.00
2017-07-21T17:12:39.756Z,47.20
2017-07-21T17:15:07.263Z,47.40
2017-07-21T17:17:34.782Z,47.70
2017-07-21T17:20:02.302Z,48.10
2017-07-21T17:22:29.869Z,48.50
2017-07-21T17:24:57.381Z,48.90
2017-07-21T17:27:24.889Z,49.20
2017-07-21T17:29:52.410Z,49.50
2017-07-21T17:32:19.940Z,49.80
2017-07-21T17:34:47.432Z,50.10
2017-07-21T17:37:14.936Z,50.40
2017-07-21T17:39:42.512Z,50.80
2017-07-21T17:42:10.036Z,51.00
2017-07-21T17:44:37.605Z,51.20
2017-07-21T17:47:05.131Z,51.50
2017-07-21T17:49:32.702Z,51.80
2017-07-21T17:52:00.247Z,52.00
2017-07-21T17:54:27.773Z,52.30
2017-07-21T17:56:55.303Z,52.60
2017-07-21T17:59:22.838Z,52.90
2017-07-21T18:01:50.397Z,53.20
2017-07-21T18:04:17.955Z,53.40
2017-07-21T18:06:45.494Z,53.60
2017-07-21T18:09:13.022Z,53.90
2017-07-21T18:11:40.538Z,53.90
2017-07-21T18:14:08.831Z,54.20
2017-07-21T18:16:36.682Z,54.20
2017-07-21T18:19:04.208Z,54.40
2017-07-21T18:21:31.798Z,54.10
2017-07-21T18:23:59.338Z,53.80
2017-07-21T18:26:26.957Z,53.50
2017-07-21T18:28:54.489Z,53.40
2017-07-21T18:31:22.020Z,53.20
2017-07-21T18:33:49.570Z,53.20
2017-07-21T18:36:17.082Z,53.40
2017-07-21T18:38:45.374Z,53.70
2017-07-21T18:41:12.901Z,53.60
2017-07-21T18:43:40.446Z,53.70
2017-07-21T18:46:08.772Z,53.90
2017-07-21T18:48:36.282Z,53.80
2017-07-21T18:51:03.801Z,53.80
2017-07-21T18:53:31.318Z,54.10
2017-07-21T18:55:58.827Z,54.20
2017-07-21T18:58:26.374Z,54.40
2017-07-21T19:00:53.877Z,54.50
2017-07-21T19:03:22.162Z,54.60
2017-07-21T19:05:50.394Z,54.60
2017-07-21T19:08:17.924Z,54.80
2017-07-21T19:10:45.429Z,55.00
2017-07-21T19:13:12.946Z,55.00
2017-07-21T19:15:40.458Z,55.20
2017-07-21T19:18:07.985Z,55.20
2017-07-21T19:20:36.285Z,55.40
2017-07-21T19:23:03.797Z,55.40
2017-07-21T19:25:32.066Z,55.60
2017-07-21T19:27:59.594Z,55.60
2017-07-21T19:30:27.866Z,55.00
2017-07-21T19:32:55.393Z,55.00
2017-07-21T19:35:22.922Z,55.00
2017-07-21T19:37:50.454Z,54.90
2017-07-21T19:40:18.240Z,55.00
2017-07-21T19:42:45.740Z,55.40
2017-07-21T19:45:13.340Z,55.00
2017-07-21T19:47:40.903Z,55.00
2017-07-21T19:50:10.164Z,55.00
2017-07-21T19:52:37.820Z,55.20
2017-07-21T19:55:05.341Z,55.30
2017-07-21T19:57:33.621Z,55.50
2017-07-21T20:00:01.150Z,55.50
2017-07-21T20:02:28.713Z,55.60
2017-07-21T20:04:56.222Z,55.60
2017-07-21T20:07:24.521Z,56.20
2017-07-21T20:09:52.151Z,56.20
2017-07-21T20:12:19.681Z,56.30
2017-07-21T20:14:47.316Z,56.40
2017-07-21T20:17:14.823Z,56.60
2017-07-21T20:19:42.532Z,56.70
2017-07-21T20:22:10.190Z,56.90
2017-07-21T20:24:37.741Z,56.90
2017-07-21T20:27:05.299Z,56.90
2017-07-21T20:29:32.809Z,56.80
2017-07-21T20:32:00.314Z,56.90
2017-07-21T20:34:28.609Z,57.10
2017-07-21T20:36:56.212Z,57.10
2017-07-21T20:39:24.875Z,57.10
2017-07-21T20:41:53.198Z,57.40
2017-07-21T20:44:20.722Z,57.40
2017-07-21T20:46:48.236Z,57.40
2017-07-21T20:49:16.624Z,57.60
2017-07-21T20:51:44.171Z,57.60
2017-07-21T20:54:11.765Z,57.70
2017-07-21T20:56:39.389Z,57.80
2017-07-21T20:59:07.025Z,57.80
2017-07-21T21:01:34.589Z,58.00
2017-07-21T21:04:02.122Z,58.20
2017-07-21T21:06:29.642Z,58.40
2017-07-21T21:08:57.158Z,58.40
2017-07-21T21:11:24.673Z,58.70
2017-07-21T21:13:52.180Z,58.90
2017-07-21T21:16:19.699Z,59.00
2017-07-21T21:18:47.232Z,59.10
2017-07-21T21:21:14.758Z,59.10
2017-07-21T21:23:43.041Z,59.50
2017-07-21T21:26:10.640Z,59.40
2017-07-21T21:28:38.154Z,59.50
2017-07-21T21:41:10.330Z,59.70
2017-07-21T21:47:37.543Z,60.20
2017-07-21T21:53:05.093Z,60.90
2017-07-21T21:58:32.740Z,60.40
2017-07-21T22:04:00.350Z,60.60
2017-07-21T22:09:27.897Z,60.60
2017-07-21T22:14:55.717Z,60.80
2017-07-21T22:20:24.028Z,61.10
2017-07-21T22:25:53.473Z,61.20
2017-07-21T22:31:21.005Z,62.00
2017-07-21T22:36:49.302Z,62.80
2017-07-21T22:42:16.828Z,62.80
2017-07-21T22:47:44.378Z,62.80
2017-07-21T22:53:11.918Z,63.00
2017-07-21T22:58:39.584Z,62.90
2017-07-21T23:04:07.132Z,62.70
2017-07-21T23:09:34.665Z,62.70
2017-07-21T23:15:02.204Z,63.00
2017-07-21T23:20:29.753Z,63.00
2017-07-21T23:25:57.273Z,63.00
2017-07-21T23:31:24.792Z,63.10
2017-07-21T23:36:53.084Z,64.20
2017-07-21T23:42:20.610Z,64.20
2017-07-21T23:47:48.136Z,64.80
2017-07-21T23:53:16.416Z,65.40
2017-07-21T23:58:43.940Z,65.40
